createdAt,value
2022-11-28T00:00:02.635Z,8.02
2022-11-28T00:02:29.200Z,7.65
2022-11-28T00:04:55.685Z,7.63
2022-11-28T00:07:22.168Z,7.88
2022-11-28T00:09:48.843Z,8.52
2022-11-28T00:12:15.238Z,8.05
2022-11-28T00:14:41.851Z,8.15
2022-11-28T00:17:08.407Z,8.40
2022-11-28T00:19:34.842Z,8.45
2022-11-28T00:22:01.507Z,7.57
2022-11-28T00:24:27.919Z,8.57
2022-11-28T00:26:54.372Z,7.50
2022-11-28T00:29:20.907Z,8.15
2022-11-28T00:31:47.377Z,8.20
2022-11-28T00:34:15.206Z,8.07
2022-11-28T00:36:43.887Z,7.53
2022-11-28T00:39:10.310Z,8.70
2022-11-28T00:41:36.771Z,8.52
2022-11-28T00:44:03.247Z,8.27
2022-11-28T00:46:30.172Z,7.80
2022-11-28T00:48:58.026Z,7.72
2022-11-28T00:51:26.752Z,8.55
2022-11-28T00:53:54.305Z,8.05
2022-11-28T00:56:25.490Z,8.45
2022-11-28T00:58:52.259Z,8.25
2022-11-28T01:01:24.443Z,7.97
2022-11-28T01:03:51.737Z,8.85
2022-11-28T01:06:24.099Z,8.73
2022-11-28T01:08:50.573Z,8.15
2022-11-28T01:11:17.117Z,9.45
2022-11-28T01:13:43.487Z,8.07
2022-11-28T01:16:10.718Z,8.68
2022-11-28T01:18:37.624Z,8.15
2022-11-28T01:21:05.358Z,7.55
2022-11-28T01:23:31.788Z,8.55
2022-11-28T01:25:58.191Z,8.50
2022-11-28T01:28:24.633Z,8.40
2022-11-28T01:30:51.051Z,8.50
2022-11-28T01:33:17.443Z,8.15
2022-11-28T01:35:54.063Z,7.72
2022-11-28T01:38:20.420Z,7.80
2022-11-28T01:40:46.968Z,7.70
2022-11-28T01:43:13.375Z,7.53
2022-11-28T01:45:40.204Z,8.93
2022-11-28T01:48:09.054Z,7.90
2022-11-28T01:50:36.175Z,8.38
2022-11-28T01:53:05.194Z,7.53
2022-11-28T01:55:33.978Z,7.60
2022-11-28T01:58:00.838Z,6.82
2022-11-28T02:00:27.706Z,8.10
2022-11-28T02:03:01.574Z,6.95
2022-11-28T02:05:28.053Z,7.43
2022-11-28T02:07:54.454Z,8.00
2022-11-28T02:10:27.196Z,7.53
2022-11-28T02:13:06.910Z,7.50
2022-11-28T02:15:44.232Z,7.30
2022-11-28T02:18:32.183Z,5.43
2022-11-28T02:21:26.090Z,7.38
2022-11-28T02:24:13.707Z,7.57
2022-11-28T02:26:59.955Z,7.15
2022-11-28T02:29:41.247Z,7.05
2022-11-28T02:32:22.832Z,6.60
2022-11-28T02:34:58.196Z,5.03
2022-11-28T02:37:49.594Z,6.68
2022-11-28T02:40:21.881Z,7.60
2022-11-28T02:43:06.426Z,6.35
2022-11-28T02:46:02.683Z,6.88
2022-11-28T02:48:57.874Z,7.28
2022-11-28T02:51:31.880Z,6.53
2022-11-28T02:54:00.223Z,6.63
2022-11-28T02:56:26.787Z,7.35
2022-11-28T02:58:53.323Z,6.97
2022-11-28T03:01:24.279Z,6.90
2022-11-28T03:04:03.297Z,7.90
2022-11-28T03:06:46.796Z,7.13
2022-11-28T03:09:38.488Z,6.82
2022-11-28T03:12:37.703Z,7.47
2022-11-28T03:15:06.596Z,7.22
2022-11-28T03:17:48.052Z,6.63
2022-11-28T03:20:35.156Z,7.10
2022-11-28T03:23:18.867Z,7.75
2022-11-28T03:26:12.600Z,6.07
2022-11-28T03:28:44.952Z,8.00
2022-11-28T03:31:15.268Z,8.55
2022-11-28T03:33:48.551Z,8.40
2022-11-28T03:36:20.028Z,10.02
2022-11-28T03:38:50.711Z,9.02
2022-11-28T03:41:21.832Z,9.32
2022-11-28T03:43:53.937Z,9.15
2022-11-28T03:46:22.444Z,9.85
2022-11-28T03:48:52.354Z,10.80
2022-11-28T03:51:22.227Z,12.00
2022-11-28T03:54:08.515Z,10.07
2022-11-28T03:56:50.450Z,10.18
2022-11-28T03:59:21.574Z,9.48
2022-11-28T04:01:53.921Z,10.32
2022-11-28T04:04:52.430Z,10.73
2022-11-28T04:07:43.096Z,11.27
2022-11-28T04:10:28.155Z,11.65
2022-11-28T04:13:09.774Z,11.35
2022-11-28T04:15:58.702Z,9.60
2022-11-28T04:18:33.696Z,11.45
2022-11-28T04:21:21.487Z,11.60
2022-11-28T04:23:49.266Z,12.05
2022-11-28T04:26:20.478Z,11.63
2022-11-28T04:28:48.466Z,12.60
2022-11-28T04:31:16.900Z,12.32
2022-11-28T04:33:47.984Z,12.98
2022-11-28T04:36:16.212Z,12.55
2022-11-28T04:38:43.447Z,12.38
2022-11-28T04:41:14.143Z,13.13
2022-11-28T04:43:49.831Z,12.88
2022-11-28T04:46:19.917Z,12.52
2022-11-28T04:48:46.340Z,13.35
2022-11-28T04:52:06.367Z,12.82
2022-11-28T04:54:38.327Z,10.55
2022-11-28T04:57:18.250Z,12.98
2022-11-28T04:59:45.287Z,12.70
2022-11-28T05:02:13.654Z,10.10
2022-11-28T05:04:40.477Z,12.73
2022-11-28T05:07:08.248Z,12.55
2022-11-28T05:09:34.939Z,13.73
2022-11-28T05:12:01.523Z,13.43
2022-11-28T05:14:27.936Z,13.88
2022-11-28T05:16:54.398Z,12.13
2022-11-28T05:19:20.861Z,12.57
2022-11-28T05:21:47.303Z,11.40
2022-11-28T05:24:13.774Z,13.10
2022-11-28T05:26:40.206Z,12.70
2022-11-28T05:29:06.800Z,13.25
2022-11-28T05:31:33.704Z,12.68
2022-11-28T05:34:00.219Z,12.52
2022-11-28T05:36:26.651Z,13.20
2022-11-28T05:38:53.041Z,12.35
2022-11-28T05:41:21.765Z,12.82
2022-11-28T05:43:48.387Z,13.63
2022-11-28T05:46:14.960Z,12.25
2022-11-28T05:48:41.393Z,12.45
2022-11-28T05:51:08.181Z,13.63
2022-11-28T05:53:34.837Z,12.77
2022-11-28T05:56:10.447Z,11.90
2022-11-28T05:58:37.054Z,12.65
2022-11-28T06:01:11.362Z,11.82
2022-11-28T06:03:37.851Z,11.48
2022-11-28T06:06:04.725Z,11.95
2022-11-28T06:08:31.099Z,11.27
2022-11-28T06:10:58.246Z,12.80
2022-11-28T06:13:24.679Z,9.95
2022-11-28T06:15:51.086Z,12.55
2022-11-28T06:18:17.464Z,12.65
2022-11-28T06:20:43.867Z,11.75
2022-11-28T06:23:10.273Z,11.70
2022-11-28T06:25:36.647Z,11.30
2022-11-28T06:28:02.993Z,12.07
2022-11-28T06:30:29.346Z,12.55
2022-11-28T06:32:55.734Z,13.35
2022-11-28T06:35:22.193Z,12.38
2022-11-28T06:37:48.583Z,13.25
2022-11-28T06:40:15.076Z,12.30
2022-11-28T06:42:41.583Z,12.45
2022-11-28T06:45:09.165Z,12.18
2022-11-28T06:47:35.566Z,12.85
2022-11-28T06:50:01.906Z,12.30
2022-11-28T06:52:28.306Z,12.93
2022-11-28T06:54:55.052Z,12.57
2022-11-28T06:57:22.055Z,12.23
2022-11-28T06:59:49.210Z,13.10
2022-11-28T07:02:15.626Z,12.57
2022-11-28T07:04:42.080Z,13.07
2022-11-28T07:07:10.683Z,13.60
2022-11-28T07:09:40.335Z,14.00
2022-11-28T07:12:06.996Z,12.35
2022-11-28T07:14:33.677Z,12.95
2022-11-28T07:17:00.268Z,13.23
2022-11-28T07:19:26.784Z,12.93
2022-11-28T07:21:53.152Z,11.90
2022-11-28T07:24:19.572Z,14.02
2022-11-28T07:26:47.440Z,13.90
2022-11-28T07:29:15.915Z,12.93
2022-11-28T07:31:42.669Z,13.00
2022-11-28T07:34:10.151Z,13.43
2022-11-28T07:36:37.612Z,12.48
2022-11-28T07:39:05.710Z,12.68
2022-11-28T07:41:32.064Z,12.55
2022-11-28T07:44:00.180Z,12.93
2022-11-28T07:46:27.825Z,13.55
2022-11-28T07:48:54.327Z,13.20
2022-11-28T07:51:23.428Z,14.35
2022-11-28T07:53:49.883Z,14.10
2022-11-28T07:56:18.308Z,13.50
2022-11-28T07:58:45.929Z,14.30
2022-11-28T08:01:22.250Z,14.23
2022-11-28T08:03:49.182Z,13.02
2022-11-28T08:06:17.141Z,12.73
2022-11-28T08:08:44.028Z,13.38
2022-11-28T08:11:10.593Z,12.45
2022-11-28T08:13:38.702Z,12.80
2022-11-28T08:16:06.923Z,12.85
2022-11-28T08:18:34.884Z,13.20
2022-11-28T08:21:12.734Z,12.23
2022-11-28T08:23:40.000Z,13.15
2022-11-28T08:26:08.791Z,13.50
2022-11-28T08:28:35.498Z,13.23
2022-11-28T08:31:11.921Z,13.85
2022-11-28T08:33:38.724Z,13.38
2022-11-28T08:36:09.340Z,12.90
2022-11-28T08:38:37.128Z,13.77
2022-11-28T08:41:08.383Z,13.88
2022-11-28T08:43:36.739Z,13.13
2022-11-28T08:46:04.379Z,13.45
2022-11-28T08:48:31.307Z,13.32
2022-11-28T08:50:57.667Z,14.35
2022-11-28T08:53:24.172Z,13.38
2022-11-28T08:55:50.527Z,14.10
2022-11-28T08:58:16.995Z,14.68
2022-11-28T09:00:43.556Z,14.45
2022-11-28T09:03:15.233Z,14.93
2022-11-28T09:05:42.887Z,14.18
2022-11-28T09:08:11.785Z,16.05
2022-11-28T09:10:39.443Z,14.63
2022-11-28T09:13:06.341Z,15.65
2022-11-28T09:15:33.402Z,15.88
2022-11-28T09:17:59.919Z,15.50
2022-11-28T09:20:26.471Z,16.00
2022-11-28T09:22:52.961Z,14.63
2022-11-28T09:25:19.351Z,15.90
2022-11-28T09:27:45.756Z,15.85
2022-11-28T09:30:12.651Z,15.35
2022-11-28T09:32:39.010Z,16.90
2022-11-28T09:35:05.799Z,15.70
2022-11-28T09:37:32.304Z,16.42
2022-11-28T09:40:12.560Z,15.98
2022-11-28T09:42:43.640Z,16.38
2022-11-28T09:45:19.042Z,16.60
2022-11-28T09:47:57.915Z,17.67
2022-11-28T09:50:32.548Z,17.67
2022-11-28T09:53:14.154Z,17.98
2022-11-28T09:55:56.254Z,17.98
2022-11-28T09:58:43.312Z,17.30
2022-11-28T10:01:41.507Z,17.83
2022-11-28T10:04:35.837Z,17.40
2022-11-28T10:07:18.392Z,17.85
2022-11-28T10:10:03.934Z,18.50
2022-11-28T10:12:57.289Z,19.00
2022-11-28T10:15:50.499Z,18.35
2022-11-28T10:18:37.293Z,17.15
2022-11-28T10:21:22.985Z,18.30
2022-11-28T10:23:50.762Z,21.00
2022-11-28T10:26:22.648Z,17.95
2022-11-28T10:28:52.104Z,17.23
2022-11-28T10:31:36.946Z,21.25
2022-11-28T10:34:03.207Z,19.92
2022-11-28T10:37:05.082Z,20.02
2022-11-28T10:39:31.718Z,18.75
2022-11-28T10:42:28.424Z,22.08
2022-11-28T10:44:59.606Z,19.30
2022-11-28T10:47:55.422Z,19.73
2022-11-28T10:50:39.270Z,19.58
2022-11-28T10:53:39.806Z,21.33
2022-11-28T10:56:27.893Z,21.27
2022-11-28T10:59:01.118Z,18.50
2022-11-28T11:01:31.773Z,19.85
2022-11-28T11:03:58.249Z,19.15
2022-11-28T11:06:36.105Z,21.35
2022-11-28T11:09:09.321Z,21.15
2022-11-28T11:11:40.720Z,20.23
2022-11-28T11:14:09.835Z,20.60
2022-11-28T11:16:48.701Z,19.27
2022-11-28T11:19:27.142Z,20.45
2022-11-28T11:22:22.441Z,19.70
2022-11-28T11:25:05.791Z,21.27
2022-11-28T11:27:32.578Z,17.30
2022-11-28T11:29:59.122Z,19.77
2022-11-28T11:32:29.532Z,19.23
2022-11-28T11:34:57.381Z,18.85
2022-11-28T11:37:36.364Z,18.90
2022-11-28T11:40:27.182Z,19.52
2022-11-28T11:42:59.341Z,18.52
2022-11-28T11:45:30.359Z,19.83
2022-11-28T11:47:57.605Z,18.83
2022-11-28T11:50:26.399Z,18.98
2022-11-28T11:53:12.764Z,20.77
2022-11-28T11:55:49.308Z,22.17
2022-11-28T11:58:28.811Z,20.48
2022-11-28T12:00:57.695Z,20.15
2022-11-28T12:03:36.814Z,20.02
2022-11-28T12:06:29.372Z,20.55
2022-11-28T12:09:25.003Z,19.85
2022-11-28T12:12:06.512Z,20.08
2022-11-28T12:14:34.677Z,19.67
2022-11-28T12:17:47.907Z,19.60
2022-11-28T12:20:39.972Z,20.00
2022-11-28T12:23:40.734Z,22.25
2022-11-28T12:26:39.502Z,21.17
2022-11-28T12:29:30.942Z,21.13
2022-11-28T12:32:30.810Z,21.15
2022-11-28T12:35:27.735Z,18.30
2022-11-28T12:38:19.056Z,19.27
2022-11-28T12:40:45.420Z,18.52
2022-11-28T12:43:38.528Z,20.13
2022-11-28T12:46:14.086Z,18.20
2022-11-28T12:49:03.383Z,18.85
2022-11-28T12:51:54.025Z,16.52
2022-11-28T12:54:32.115Z,19.05
2022-11-28T12:57:29.887Z,18.00
2022-11-28T13:00:09.463Z,18.00
2022-11-28T13:02:54.953Z,17.58
2022-11-28T13:05:40.194Z,17.90
2022-11-28T13:08:22.609Z,17.55
2022-11-28T13:11:26.626Z,17.77
2022-11-28T13:13:59.184Z,16.52
2022-11-28T13:16:47.563Z,19.75
2022-11-28T13:21:58.566Z,18.23
2022-11-28T13:24:31.632Z,20.27
2022-11-28T13:27:09.474Z,19.17
2022-11-28T13:29:42.011Z,18.42
2022-11-28T13:32:44.829Z,19.67
2022-11-28T13:35:16.319Z,19.23
2022-11-28T13:40:42.882Z,20.20
2022-11-28T13:43:25.539Z,19.27
2022-11-28T13:45:52.698Z,19.35
2022-11-28T13:49:05.956Z,19.58
2022-11-28T13:51:30.639Z,19.15
2022-11-28T13:54:22.771Z,20.85
2022-11-28T13:57:05.512Z,20.10
2022-11-28T13:59:32.610Z,20.58
2022-11-28T14:02:04.281Z,19.13
2022-11-28T14:04:32.137Z,19.48
2022-11-28T14:07:04.322Z,19.17
2022-11-28T14:09:52.632Z,19.20
2022-11-28T14:12:31.599Z,19.95
2022-11-28T14:15:26.209Z,18.92
2022-11-28T14:18:54.453Z,19.35
2022-11-28T14:21:12.040Z,20.92
2022-11-28T14:23:46.121Z,19.65
2022-11-28T14:26:27.931Z,21.23
2022-11-28T14:28:54.502Z,18.85
2022-11-28T14:31:32.888Z,20.08
2022-11-28T14:34:47.904Z,18.90
2022-11-28T14:40:59.734Z,19.15
2022-11-28T14:43:37.805Z,20.02
2022-11-28T14:46:24.573Z,22.23
2022-11-28T14:49:00.445Z,19.25
2022-11-28T14:51:45.683Z,20.67
2022-11-28T14:54:35.433Z,19.95
2022-11-28T14:57:02.090Z,20.65
2022-11-28T14:59:34.446Z,20.17
2022-11-28T15:02:13.187Z,21.42
2022-11-28T15:05:03.041Z,20.00
2022-11-28T15:07:54.692Z,19.40
2022-11-28T15:10:45.760Z,19.50
2022-11-28T15:13:24.338Z,19.83
2022-11-28T15:15:52.245Z,20.80
2022-11-28T15:18:20.360Z,20.27
2022-11-28T15:20:50.763Z,20.05
2022-11-28T15:23:31.282Z,20.83
2022-11-28T15:25:59.036Z,21.45
2022-11-28T15:28:28.552Z,19.65
2022-11-28T15:30:56.978Z,22.15
2022-11-28T15:33:25.459Z,20.75
2022-11-28T15:35:58.259Z,22.33
2022-11-28T15:38:25.805Z,21.15
2022-11-28T15:40:54.431Z,23.10
2022-11-28T15:43:21.040Z,22.15
2022-11-28T15:45:52.365Z,21.48
2022-11-28T15:48:39.750Z,22.25
2022-11-28T15:51:07.408Z,21.38
2022-11-28T15:53:34.186Z,21.30
2022-11-28T15:56:12.732Z,22.45
2022-11-28T15:58:42.560Z,22.33
2022-11-28T16:03:58.960Z,19.50
2022-11-28T16:06:28.936Z,20.40
2022-11-28T16:11:28.142Z,19.55
2022-11-28T16:13:56.250Z,22.02
2022-11-28T16:16:26.040Z,21.95
2022-11-28T16:18:58.059Z,21.48
2022-11-28T16:21:42.611Z,21.75
2022-11-28T16:24:31.205Z,20.30
2022-11-28T16:27:04.176Z,22.42
2022-11-28T16:29:34.856Z,20.17
2022-11-28T16:32:22.923Z,21.48
2022-11-28T16:34:51.188Z,22.63
2022-11-28T16:37:26.675Z,19.05
2022-11-28T16:40:23.049Z,21.20
2022-11-28T16:42:53.606Z,20.40
2022-11-28T16:45:29.532Z,22.58
2022-11-28T16:48:08.964Z,21.08
2022-11-28T16:50:36.396Z,22.13
2022-11-28T16:53:04.122Z,23.20
2022-11-28T16:55:30.395Z,21.85
2022-11-28T16:58:07.087Z,20.55
2022-11-28T17:00:34.908Z,21.05
2022-11-28T17:03:01.661Z,23.15
2022-11-28T17:05:28.134Z,24.63
2022-11-28T17:07:54.818Z,22.00
2022-11-28T17:10:21.342Z,22.38
2022-11-28T17:12:47.895Z,22.95
2022-11-28T17:15:18.595Z,23.13
2022-11-28T17:17:45.019Z,22.20
2022-11-28T17:20:12.499Z,25.25
2022-11-28T17:22:44.056Z,23.75
2022-11-28T17:25:16.100Z,26.23
2022-11-28T17:27:42.797Z,32.55
2022-11-28T17:30:19.486Z,30.83
2022-11-28T17:32:47.913Z,26.58
2022-11-28T17:35:17.374Z,23.00
2022-11-28T17:37:43.866Z,24.83
2022-11-28T17:40:28.923Z,20.55
2022-11-28T17:42:55.374Z,20.77
2022-11-28T17:45:22.167Z,21.80
2022-11-28T17:47:48.659Z,20.70
2022-11-28T17:50:15.073Z,22.63
2022-11-28T17:52:41.574Z,23.05
2022-11-28T17:55:08.346Z,23.25
2022-11-28T17:57:34.868Z,24.80
2022-11-28T18:00:01.301Z,24.45
2022-11-28T18:02:27.797Z,21.70
2022-11-28T18:04:54.246Z,23.35
2022-11-28T18:07:20.714Z,23.20
2022-11-28T18:09:47.819Z,21.40
2022-11-28T18:12:14.224Z,21.55
2022-11-28T18:14:40.596Z,20.52
2022-11-28T18:17:06.991Z,20.10
2022-11-28T18:19:33.398Z,21.23
2022-11-28T18:21:59.769Z,19.65
2022-11-28T18:24:26.175Z,26.30
2022-11-28T18:26:52.580Z,23.33
2022-11-28T18:29:18.988Z,21.08
2022-11-28T18:31:45.559Z,21.58
2022-11-28T18:34:11.999Z,21.42
2022-11-28T18:36:39.742Z,24.45
2022-11-28T18:39:09.302Z,23.65
2022-11-28T18:41:35.723Z,23.77
2022-11-28T18:44:04.714Z,19.83
2022-11-28T18:46:31.798Z,20.50
2022-11-28T18:48:58.520Z,21.38
2022-11-28T18:51:34.752Z,21.83
2022-11-28T18:56:31.197Z,20.98
2022-11-28T18:58:58.079Z,19.75
2022-11-28T19:01:28.488Z,21.42
2022-11-28T19:03:57.483Z,24.63
2022-11-28T19:06:24.328Z,21.33
2022-11-28T19:08:56.436Z,25.58
2022-11-28T19:11:23.299Z,23.42
2022-11-28T19:13:51.599Z,21.42
2022-11-28T19:16:23.758Z,21.60
2022-11-28T19:18:50.447Z,23.85
2022-11-28T19:21:19.751Z,24.63
2022-11-28T19:23:47.146Z,21.45
2022-11-28T19:26:15.147Z,23.63
2022-11-28T19:28:41.866Z,22.20
2022-11-28T19:31:12.547Z,20.70
2022-11-28T19:33:39.278Z,21.65
2022-11-28T19:36:07.851Z,20.30
2022-11-28T19:38:35.295Z,24.17
2022-11-28T19:41:21.591Z,26.60
2022-11-28T19:43:48.700Z,22.27
2022-11-28T19:46:15.526Z,24.80
2022-11-28T19:48:42.425Z,24.48
2022-11-28T19:51:10.307Z,23.27
2022-11-28T19:53:38.098Z,24.95
2022-11-28T19:56:12.112Z,24.13
2022-11-28T19:58:38.762Z,24.73
2022-11-28T20:01:09.508Z,25.73
2022-11-28T20:03:37.360Z,24.40
2022-11-28T20:06:11.981Z,24.95
2022-11-28T20:08:38.838Z,25.60
2022-11-28T20:11:13.282Z,23.23
2022-11-28T20:13:41.211Z,24.58
2022-11-28T20:16:08.849Z,25.40
2022-11-28T20:18:40.905Z,26.20
2022-11-28T20:21:09.810Z,23.75
2022-11-28T20:23:44.345Z,24.98
2022-11-28T20:26:12.199Z,23.20
2022-11-28T20:28:39.650Z,26.98
2022-11-28T20:31:07.169Z,23.35
2022-11-28T20:33:33.750Z,21.75
2022-11-28T20:36:08.534Z,21.40
2022-11-28T20:38:35.333Z,24.33
2022-11-28T20:41:03.492Z,18.77
2022-11-28T20:43:31.247Z,17.17
2022-11-28T20:46:02.578Z,18.30
2022-11-28T20:48:29.002Z,16.63
2022-11-28T20:50:55.496Z,18.33
2022-11-28T20:53:26.552Z,24.55
2022-11-28T20:56:01.247Z,22.95
2022-11-28T20:58:27.658Z,24.48
2022-11-28T21:00:54.401Z,22.92
2022-11-28T21:03:21.130Z,19.83
2022-11-28T21:05:47.493Z,17.00
2022-11-28T21:08:13.855Z,24.17
2022-11-28T21:10:40.228Z,26.20
2022-11-28T21:13:07.167Z,19.67
2022-11-28T21:15:33.528Z,18.98
2022-11-28T21:18:00.002Z,24.42
2022-11-28T21:20:26.416Z,22.73
2022-11-28T21:22:52.820Z,24.25
2022-11-28T21:25:19.237Z,24.17
2022-11-28T21:27:46.061Z,21.33
2022-11-28T21:30:12.467Z,24.60
2022-11-28T21:32:38.814Z,21.15
2022-11-28T21:35:05.633Z,19.90
2022-11-28T21:37:32.304Z,22.13
2022-11-28T21:39:58.766Z,20.85
2022-11-28T21:42:25.118Z,26.10
2022-11-28T21:44:51.490Z,19.95
2022-11-28T21:47:17.875Z,21.10
2022-11-28T21:49:44.574Z,25.00
2022-11-28T21:52:12.110Z,22.73
2022-11-28T21:54:38.463Z,23.90
2022-11-28T21:57:04.823Z,26.13
2022-11-28T21:59:31.696Z,22.42
2022-11-28T22:01:58.168Z,23.30
2022-11-28T22:04:24.688Z,24.90
2022-11-28T22:06:51.222Z,23.42
2022-11-28T22:09:17.586Z,23.95
2022-11-28T22:11:43.986Z,20.05
2022-11-28T22:14:10.952Z,23.73
2022-11-28T22:16:37.351Z,19.98
2022-11-28T22:19:04.079Z,30.67
2022-11-28T22:24:17.539Z,22.63
2022-11-28T22:26:44.053Z,25.83
2022-11-28T22:29:11.062Z,28.92
2022-11-28T22:31:37.644Z,27.80
2022-11-28T22:34:04.079Z,26.83
2022-11-28T22:36:32.031Z,22.60
2022-11-28T22:38:58.907Z,22.52
2022-11-28T22:41:29.236Z,29.10
2022-11-28T22:43:59.305Z,25.75
2022-11-28T22:46:25.940Z,23.10
2022-11-28T22:48:52.297Z,29.45
2022-11-28T22:51:22.012Z,24.27
2022-11-28T22:53:52.694Z,23.23
2022-11-28T22:56:19.094Z,26.77
2022-11-28T22:58:45.615Z,25.00
2022-11-28T23:01:17.760Z,22.90
2022-11-28T23:03:45.302Z,25.20
2022-11-28T23:06:14.108Z,26.23
2022-11-28T23:08:40.598Z,25.42
2022-11-28T23:11:09.200Z,23.42
2022-11-28T23:13:36.653Z,23.75
2022-11-28T23:16:19.675Z,28.42
2022-11-28T23:18:48.160Z,33.35
2022-11-28T23:21:15.301Z,25.63
2022-11-28T23:23:41.922Z,34.40
2022-11-28T23:26:22.892Z,28.63
2022-11-28T23:28:49.484Z,23.90
2022-11-28T23:31:19.012Z,24.75
2022-11-28T23:33:45.725Z,27.02
2022-11-28T23:36:17.507Z,26.58
2022-11-28T23:38:45.085Z,25.75
2022-11-28T23:41:12.138Z,28.02
2022-11-28T23:43:38.830Z,30.30
2022-11-28T23:46:06.171Z,27.98
2022-11-28T23:48:32.778Z,24.88
2022-11-28T23:50:59.127Z,23.40
2022-11-28T23:53:25.783Z,24.60
2022-11-28T23:55:52.348Z,23.13
2022-11-28T23:58:19.265Z,24.15
